Time;durP1;ratioP1;P1;durP2;ratioP2;P2;SDS_P1;SDS_P2;PMS_P1;PMS_P2;Temp;Humidity;BMP_temperature;BMP_pressure;BME280_temperature;BME280_humidity;BME280_pressure;Samples;Min_cycle;Max_cycle;Signal;HPM_P1;HPM_P2
2023/05/08 00:00:22;;;;;;;9.43;5.97;;;;;;;6.11;75.19;102340.31;5076008;28;20059;-55
2023/05/08 00:02:47;;;;;;;9.15;6.07;;;;;;;6.09;75.31;102335.97;5056017;28;20040;-56
2023/05/08 00:05:13;;;;;;;10.80;6.45;;;;;;;6.05;76.31;102335.97;5060230;28;20325;-56
2023/05/08 00:07:39;;;;;;;17.17;6.82;;;;;;;5.97;76.47;102337.72;5075781;28;20035;-57
2023/05/08 00:10:05;;;;;;;8.93;6.90;;;;;;;5.96;76.35;102343.84;5076752;28;20023;-56
2023/05/08 00:12:31;;;;;;;15.27;6.10;;;;;;;6.01;76.08;102344.72;5075957;28;20130;-58
2023/05/08 00:14:56;;;;;;;8.30;6.32;;;;;;;6.02;75.88;102345.59;5074332;28;20084;-56
2023/05/08 00:17:22;;;;;;;8.52;6.03;;;;;;;5.95;75.65;102339.47;5075651;28;20120;-56
2023/05/08 00:19:47;;;;;;;10.57;6.28;;;;;;;5.85;75.74;102340.31;5075068;28;20035;-56
2023/05/08 00:22:13;;;;;;;10.60;7.55;;;;;;;5.87;76.37;102349.09;5056350;28;20064;-57
2023/05/08 00:24:38;;;;;;;9.27;6.65;;;;;;;5.81;76.42;102335.97;5055621;28;20021;-56
2023/05/08 00:27:04;;;;;;;8.32;7.13;;;;;;;5.79;76.34;102342.97;5058148;28;20033;-56
2023/05/08 00:29:29;;;;;;;8.05;6.45;;;;;;;5.77;76.75;102347.31;5055569;28;20040;-57
2023/05/08 00:31:55;;;;;;;11.13;7.25;;;;;;;5.75;76.25;102351.69;5069633;28;20051;-56
2023/05/08 00:34:20;;;;;;;9.73;6.10;;;;;;;5.74;76.50;102344.69;5074988;28;20036;-56
2023/05/08 00:36:46;;;;;;;11.35;6.60;;;;;;;5.72;76.87;102347.31;5070064;28;20112;-56
2023/05/08 00:39:11;;;;;;;7.75;6.35;;;;;;;5.67;77.10;102339.47;5060634;28;20117;-56
2023/05/08 00:41:36;;;;;;;11.10;7.78;;;;;;;5.81;76.53;102351.72;5074266;28;20594;-56
2023/05/08 00:44:02;;;;;;;10.70;6.75;;;;;;;5.76;76.78;102348.22;5061948;28;20017;-56
2023/05/08 00:46:27;;;;;;;9.18;6.97;;;;;;;5.76;76.23;102353.47;5062189;28;20358;-56
2023/05/08 00:48:53;;;;;;;9.82;7.03;;;;;;;5.84;75.70;102352.56;5059133;28;20041;-56
2023/05/08 00:51:19;;;;;;;8.82;6.63;;;;;;;5.80;76.01;102355.19;5055655;28;20025;-56
2023/05/08 00:53:45;;;;;;;8.90;6.22;;;;;;;5.71;76.49;102356.09;5055165;28;20591;-57
2023/05/08 00:56:13;;;;;;;9.68;6.80;;;;;;;5.65;77.22;102346.44;5059707;28;20067;-55
2023/05/08 00:58:40;;;;;;;10.48;6.75;;;;;;;5.66;76.24;102348.19;5055465;28;20069;-57
2023/05/08 01:01:05;;;;;;;9.80;6.43;;;;;;;5.58;76.96;102349.94;5054835;28;20051;-56
2023/05/08 01:03:34;;;;;;;9.13;6.55;;;;;;;5.58;76.85;102352.56;5054987;28;20806;-57
2023/05/08 01:06:01;;;;;;;9.73;7.10;;;;;;;5.58;77.19;102360.44;5066753;28;20112;-56
2023/05/08 01:08:26;;;;;;;10.50;7.40;;;;;;;5.58;76.75;102360.44;5073262;28;20024;-58
2023/05/08 01:11:07;;;;;;;9.57;6.78;;;;;;;5.58;76.62;102360.44;5060821;28;20038;-56
2023/05/08 01:14:00;;;;;;;9.07;7.30;;;;;;;5.51;77.41;102358.69;5056077;28;20032;-56
2023/05/08 01:16:41;;;;;;;11.88;8.02;;;;;;;5.51;76.72;102358.69;5064445;28;20424;-56
2023/05/08 01:19:18;;;;;;;10.45;7.70;;;;;;;5.47;77.55;102356.94;5056620;28;20434;-56
2023/05/08 01:21:59;;;;;;;10.50;7.45;;;;;;;5.42;77.55;102353.44;5067368;28;20394;-56
2023/05/08 01:24:46;;;;;;;12.15;7.93;;;;;;;5.44;77.57;102356.94;5074838;28;20048;-56
2023/05/08 01:27:32;;;;;;;8.80;7.25;;;;;;;5.43;76.81;102360.44;5065038;28;20415;-56
2023/05/08 01:30:15;;;;;;;9.15;6.82;;;;;;;5.40;77.64;102352.56;5055085;28;20021;-56
2023/05/08 01:32:45;;;;;;;10.38;7.85;;;;;;;5.30;78.11;102354.28;5069711;28;20354;-56
2023/05/08 01:35:28;;;;;;;10.45;7.93;;;;;;;5.27;77.54;102357.78;5074510;28;20017;-56
2023/05/08 01:38:06;;;;;;;10.35;8.27;;;;;;;5.31;77.18;102362.16;5073400;28;20028;-56
2023/05/08 01:40:53;;;;;;;11.48;7.93;;;;;;;5.26;77.84;102361.28;5063788;28;20507;-57
2023/05/08 01:43:30;;;;;;;12.32;8.07;;;;;;;5.25;78.16;102366.53;5054713;28;20107;-56
2023/05/08 01:45:58;;;;;;;10.40;7.68;;;;;;;5.16;77.75;102367.34;5060661;28;20029;-56
2023/05/08 01:48:30;;;;;;;14.90;8.35;;;;;;;5.06;78.19;102362.97;5074107;28;20024;-56
2023/05/08 01:51:03;;;;;;;13.35;8.30;;;;;;;5.13;78.28;102362.09;5071927;28;20119;-56
2023/05/08 01:53:33;;;;;;;10.80;7.93;;;;;;;5.04;78.37;102362.09;5072926;28;20024;-56
2023/05/08 01:56:04;;;;;;;11.18;8.27;;;;;;;5.08;78.16;102354.22;5071732;28;20048;-56
2023/05/08 01:58:32;;;;;;;12.05;7.55;;;;;;;5.09;78.33;102365.59;5063763;28;20032;-56
2023/05/08 02:00:59;;;;;;;12.93;8.27;;;;;;;4.97;79.25;102362.06;5065823;28;20032;-56
2023/05/08 02:03:26;;;;;;;13.55;8.07;;;;;;;4.91;79.19;102364.66;5072104;28;20028;-56
2023/05/08 02:05:55;;;;;;;10.60;8.00;;;;;;;4.94;78.78;102362.06;5073287;28;20038;-56
2023/05/08 02:08:22;;;;;;;9.80;8.45;;;;;;;4.81;79.56;102365.50;5069027;28;20032;-56
2023/05/08 02:10:49;;;;;;;12.98;8.90;;;;;;;4.78;79.29;102357.63;5063291;28;20039;-56
2023/05/08 02:13:18;;;;;;;16.05;8.38;;;;;;;4.76;79.40;102367.22;5056806;28;20032;-56
2023/05/08 02:15:46;;;;;;;10.75;7.55;;;;;;;4.75;79.70;102362.84;5073683;28;20322;-57
2023/05/08 02:18:14;;;;;;;10.73;8.50;;;;;;;4.78;78.77;102365.50;5069162;28;20028;-56
2023/05/08 02:20:40;;;;;;;10.88;8.90;;;;;;;4.74;79.36;102363.72;5053557;28;20028;-57
2023/05/08 02:23:06;;;;;;;13.23;8.48;;;;;;;4.69;79.02;102365.44;5053320;28;20037;-58
2023/05/08 02:25:34;;;;;;;12.32;8.25;;;;;;;4.70;79.52;102367.19;5059861;28;20444;-58
2023/05/08 02:28:00;;;;;;;11.85;8.73;;;;;;;4.72;78.90;102360.22;5066786;28;20100;-56
2023/05/08 02:30:27;;;;;;;14.55;8.23;;;;;;;4.81;78.49;102362.88;5068370;28;20043;-56
2023/05/08 02:32:55;;;;;;;9.85;8.32;;;;;;;4.74;78.56;102363.72;5053090;28;20102;-56
2023/05/08 02:35:23;;;;;;;13.05;9.43;;;;;;;4.69;78.96;102366.34;5060006;28;20032;-56
2023/05/08 02:37:54;;;;;;;13.23;9.05;;;;;;;4.67;79.09;102357.56;5065253;28;20067;-56
2023/05/08 02:40:21;;;;;;;13.97;9.03;;;;;;;4.69;79.55;102365.44;5055215;28;20051;-56
2023/05/08 02:42:47;;;;;;;14.73;9.38;;;;;;;4.67;79.13;102364.56;5069857;28;20673;-57
2023/05/08 02:45:13;;;;;;;12.65;8.57;;;;;;;4.65;78.61;102366.31;5065435;28;20037;-56
2023/05/08 02:47:52;;;;;;;15.13;8.38;;;;;;;4.59;78.63;102360.16;5068859;28;20032;-57
2023/05/08 02:50:23;;;;;;;16.98;8.80;;;;;;;4.57;78.95;102358.41;5053191;28;20103;-56
2023/05/08 02:52:53;;;;;;;12.38;8.88;;;;;;;4.54;79.06;102361.88;5056347;28;20040;-56
2023/05/08 02:55:18;;;;;;;13.85;8.60;;;;;;;4.55;79.37;102352.28;5064583;28;20020;-55
2023/05/08 02:58:03;;;;;;;13.07;9.82;;;;;;;4.46;79.58;102363.56;5059254;28;20107;-56
2023/05/08 03:00:43;;;;;;;13.70;9.27;;;;;;;4.45;79.54;102361.84;5052826;28;20017;-56
2023/05/08 03:03:16;;;;;;;14.70;10.38;;;;;;;4.34;80.20;102358.28;5052976;28;20045;-56
2023/05/08 03:05:48;;;;;;;12.25;9.23;;;;;;;4.32;80.12;102357.41;5040117;28;20090;-57
2023/05/08 03:08:16;;;;;;;13.23;10.20;;;;;;;4.37;79.79;102366.16;5063721;28;20043;-56
2023/05/08 03:10:44;;;;;;;12.18;8.95;;;;;;;4.40;79.37;102368.78;5061732;28;20376;-56
2023/05/08 03:13:11;;;;;;;18.30;9.40;;;;;;;4.41;79.32;102368.81;5057593;28;20060;-56
2023/05/08 03:15:45;;;;;;;12.43;8.85;;;;;;;4.31;80.24;102368.72;5070088;28;20124;-56
2023/05/08 03:18:15;;;;;;;12.02;9.23;;;;;;;4.23;79.90;102361.72;5054332;28;20744;-56
2023/05/08 03:20:45;;;;;;;15.70;8.93;;;;;;;4.25;80.51;102373.91;5056310;28;20035;-56
2023/05/08 03:23:14;;;;;;;12.20;9.18;;;;;;;4.32;79.51;102365.25;5055058;28;20049;-56
2023/05/08 03:25:42;;;;;;;14.43;9.40;;;;;;;4.29;80.09;102371.34;5069558;28;20033;-56
2023/05/08 03:28:09;;;;;;;13.20;9.85;;;;;;;4.22;79.57;102369.56;5066728;28;20099;-56
2023/05/08 03:30:36;;;;;;;13.05;8.93;;;;;;;4.16;79.98;102375.59;5091321;28;20051;-56
2023/05/08 03:33:04;;;;;;;14.40;9.80;;;;;;;4.12;80.42;102368.63;5067178;28;20037;-56
2023/05/08 03:35:30;;;;;;;13.30;9.90;;;;;;;4.15;80.54;102373.88;5096379;28;20075;-56
2023/05/08 03:37:57;;;;;;;16.95;10.10;;;;;;;4.10;80.67;102375.56;5070862;28;20037;-56
2023/05/08 03:40:22;;;;;;;13.02;9.55;;;;;;;4.13;80.42;102370.34;5053337;28;20033;-56
2023/05/08 03:42:49;;;;;;;14.43;9.65;;;;;;;4.13;80.21;102374.72;5052459;28;20033;-56
2023/05/08 03:45:15;;;;;;;14.43;9.07;;;;;;;4.07;80.16;102370.34;5062301;28;20062;-57
2023/05/08 03:47:42;;;;;;;13.27;10.25;;;;;;;4.08;80.64;102364.22;5059677;28;20028;-56
2023/05/08 03:50:08;;;;;;;11.93;8.68;;;;;;;4.13;80.28;102370.34;5070473;28;20408;-57
2023/05/08 03:52:34;;;;;;;16.20;10.63;;;;;;;4.11;80.29;102361.63;5072330;28;20020;-58
2023/05/08 03:55:03;;;;;;;13.85;9.73;;;;;;;4.14;80.42;102366.00;5066713;28;20499;-56
2023/05/08 03:57:38;;;;;;;11.88;9.18;;;;;;;4.27;79.65;102361.72;5056776;28;20041;-56
2023/05/08 04:00:13;;;;;;;13.68;9.45;;;;;;;4.25;79.50;102359.13;5072558;28;20036;-56
2023/05/08 04:03:02;;;;;;;13.38;9.77;;;;;;;4.19;80.40;102359.94;5061095;28;20033;-56
2023/05/08 04:05:27;;;;;;;14.63;9.43;;;;;;;4.28;79.75;102358.22;5061758;28;20028;-58
2023/05/08 04:08:08;;;;;;;14.45;10.10;;;;;;;4.27;79.44;102360.00;5075650;28;20484;-56
2023/05/08 04:10:44;;;;;;;14.63;10.50;;;;;;;4.41;79.17;102370.53;5063882;28;20411;-57
2023/05/08 04:13:21;;;;;;;18.35;10.25;;;;;;;4.48;78.35;102369.72;5056025;28;20159;-56
2023/05/08 04:16:08;;;;;;;12.40;9.65;;;;;;;4.48;78.43;102367.09;5072031;28;20132;-56
2023/05/08 04:18:36;;;;;;;14.80;10.45;;;;;;;4.58;77.90;102368.88;5077115;28;20032;-56
2023/05/08 04:21:04;;;;;;;12.95;9.27;;;;;;;4.63;77.90;102365.44;5057506;28;20048;-56
2023/05/08 04:23:30;;;;;;;15.15;9.82;;;;;;;4.64;77.78;102367.16;5056256;28;20056;-56
2023/05/08 04:25:57;;;;;;;14.25;9.55;;;;;;;4.73;77.86;102380.31;5070376;28;20029;-56
2023/05/08 04:28:22;;;;;;;12.85;9.45;;;;;;;4.74;77.28;102376.81;5069297;28;20028;-57
2023/05/08 04:30:49;;;;;;;12.57;9.40;;;;;;;4.84;77.02;102378.63;5074153;28;20052;-56
2023/05/08 04:33:17;;;;;;;11.27;8.45;;;;;;;4.78;77.20;102381.22;5071806;28;20028;-56
2023/05/08 04:35:44;;;;;;;13.30;9.73;;;;;;;4.89;77.27;102378.66;5069430;28;20025;-56
2023/05/08 04:38:10;;;;;;;12.75;8.82;;;;;;;4.96;76.34;102376.03;5054691;28;20338;-56
2023/05/08 04:40:35;;;;;;;13.90;9.23;;;;;;;5.02;75.76;102384.78;5055700;28;20047;-56
2023/05/08 04:43:01;;;;;;;15.00;10.20;;;;;;;5.06;75.80;102392.66;5054868;28;20091;-56
2023/05/08 04:45:26;;;;;;;13.15;9.25;;;;;;;5.08;75.67;102390.06;5055078;28;20029;-56
2023/05/08 04:47:51;;;;;;;15.32;8.82;;;;;;;5.09;75.87;102386.56;5059014;28;20021;-56
2023/05/08 04:50:17;;;;;;;11.80;8.85;;;;;;;5.19;75.39;102397.97;5064502;28;20472;-56
2023/05/08 04:52:42;;;;;;;12.48;9.10;;;;;;;5.18;75.64;102399.69;5069158;28;20417;-57
2023/05/08 04:55:08;;;;;;;15.77;10.63;;;;;;;5.21;75.56;102402.31;5055501;28;20048;-56
2023/05/08 04:57:33;;;;;;;12.13;9.35;;;;;;;5.19;75.70;102414.56;5068088;28;20056;-56
2023/05/08 04:59:59;;;;;;;12.18;8.85;;;;;;;5.33;74.51;102410.25;5057133;28;20029;-56
2023/05/08 05:02:25;;;;;;;13.50;8.70;;;;;;;5.35;74.90;102414.63;5059070;28;20041;-57
2023/05/08 05:04:50;;;;;;;11.95;8.30;;;;;;;5.44;74.41;102414.63;5068739;28;20032;-56
2023/05/08 05:07:16;;;;;;;13.40;8.35;;;;;;;5.45;74.13;102419.00;5065256;28;20092;-57
2023/05/08 05:09:41;;;;;;;11.93;8.20;;;;;;;5.47;74.16;102414.63;5068249;28;20068;-56
2023/05/08 05:12:07;;;;;;;12.70;8.98;;;;;;;5.55;73.86;102415.53;5074227;28;20024;-56
2023/05/08 05:14:32;;;;;;;10.02;8.05;;;;;;;5.50;73.94;102419.88;5074489;28;20425;-57
2023/05/08 05:16:58;;;;;;;14.48;8.70;;;;;;;5.65;73.86;102422.53;5062123;28;20373;-56
2023/05/08 05:19:23;;;;;;;14.10;8.52;;;;;;;5.69;73.77;102421.66;5071456;28;20036;-56
2023/05/08 05:21:49;;;;;;;12.18;8.55;;;;;;;5.75;73.77;102417.31;5070819;28;20032;-56
2023/05/08 05:24:14;;;;;;;13.50;8.63;;;;;;;5.88;73.08;102432.19;5061037;28;20472;-56
2023/05/08 05:26:40;;;;;;;13.65;8.10;;;;;;;5.96;72.69;102427.84;5067644;28;20588;-56
2023/05/08 05:29:05;;;;;;;13.90;8.45;;;;;;;6.00;72.13;102436.59;5054371;28;20464;-56
2023/05/08 05:31:31;;;;;;;15.60;8.40;;;;;;;6.09;71.85;102435.72;5057566;28;20028;-58
2023/05/08 05:33:56;;;;;;;13.00;7.18;;;;;;;6.14;71.99;102444.47;5067513;28;20020;-56
2023/05/08 05:36:22;;;;;;;10.68;7.85;;;;;;;6.22;71.08;102440.09;5063109;28;20115;-56
2023/05/08 05:38:47;;;;;;;14.10;7.93;;;;;;;6.28;71.05;102440.09;5062003;28;20039;-56
2023/05/08 05:41:13;;;;;;;16.52;7.78;;;;;;;6.39;70.91;102440.97;5073435;28;20436;-56
2023/05/08 05:43:38;;;;;;;13.68;7.95;;;;;;;6.47;70.20;102442.69;5063400;28;20447;-56
2023/05/08 05:46:07;;;;;;;9.88;7.70;;;;;;;6.51;70.03;102444.47;5065438;28;20583;-57
2023/05/08 05:48:33;;;;;;;10.55;7.28;;;;;;;6.62;70.29;102442.69;5064495;28;20055;-56
2023/05/08 05:50:58;;;;;;;10.93;7.35;;;;;;;6.68;69.11;102437.38;5062619;28;20449;-56
2023/05/08 05:53:24;;;;;;;9.90;7.57;;;;;;;6.71;69.33;102437.38;5068747;28;20111;-56
2023/05/08 05:55:49;;;;;;;11.55;8.15;;;;;;;6.76;69.23;102443.50;5054237;28;20098;-56
2023/05/08 05:58:15;;;;;;;13.07;8.43;;;;;;;6.89;68.79;102438.22;5054432;28;20031;-56
2023/05/08 06:00:41;;;;;;;10.57;7.13;;;;;;;6.99;67.88;102445.19;5062770;28;20396;-57
2023/05/08 06:03:07;;;;;;;11.35;7.28;;;;;;;7.11;67.91;102442.53;5068910;28;20029;-56
2023/05/08 06:05:32;;;;;;;10.40;5.80;;;;;;;7.17;66.65;102442.47;5059007;28;20051;-58
2023/05/08 06:07:58;;;;;;;9.30;6.70;;;;;;;7.24;66.20;102437.19;5066692;28;20028;-56
2023/05/08 06:10:23;;;;;;;9.80;6.63;;;;;;;7.29;66.99;102443.28;5059649;28;20059;-56
2023/05/08 06:12:49;;;;;;;9.48;6.03;;;;;;;7.39;66.06;102437.13;5071391;28;20082;-56
2023/05/08 06:15:14;;;;;;;9.35;6.00;;;;;;;7.47;65.21;102440.59;5067633;28;20349;-56
2023/05/08 06:17:40;;;;;;;8.90;5.93;;;;;;;7.57;65.47;102441.41;5061719;28;20028;-56
2023/05/08 06:20:06;;;;;;;6.78;5.35;;;;;;;7.68;64.22;102438.69;5071645;28;20111;-56
2023/05/08 06:22:31;;;;;;;6.95;5.55;;;;;;;7.77;63.91;102443.91;5073362;28;20048;-56
2023/05/08 06:24:57;;;;;;;8.15;5.68;;;;;;;7.82;64.02;102446.50;5073668;28;20089;-56
2023/05/08 06:27:23;;;;;;;5.43;4.53;;;;;;;7.98;63.37;102442.88;5071492;28;20055;-56
2023/05/08 06:29:51;;;;;;;6.55;4.82;;;;;;;8.07;63.05;102442.81;5056552;28;20032;-56
2023/05/08 06:32:17;;;;;;;7.90;5.00;;;;;;;8.14;61.78;102441.00;5070096;28;20499;-57
2023/05/08 06:34:43;;;;;;;7.63;4.43;;;;;;;8.22;61.54;102435.63;5066001;28;20063;-57
2023/05/08 06:37:08;;;;;;;9.45;5.03;;;;;;;8.36;61.73;102440.81;5065262;28;20024;-55
2023/05/08 06:39:33;;;;;;;7.05;4.40;;;;;;;8.48;59.73;102442.47;5056921;28;20037;-57
2023/05/08 06:41:59;;;;;;;6.60;4.72;;;;;;;8.54;59.52;102448.53;5068933;28;20122;-56
2023/05/08 06:44:24;;;;;;;6.45;3.75;;;;;;;8.72;58.72;102436.94;5069611;28;20037;-56
2023/05/08 06:46:50;;;;;;;6.28;3.58;;;;;;;8.81;58.06;102438.59;5069762;28;20029;-56
2023/05/08 06:49:15;;;;;;;7.10;3.85;;;;;;;8.85;57.22;102437.69;5072004;28;20040;-56
2023/05/08 06:51:40;;;;;;;5.20;3.80;;;;;;;9.00;57.54;102445.41;5078336;28;20085;-57
2023/05/08 06:54:07;;;;;;;7.13;4.30;;;;;;;9.09;56.22;102443.53;5073815;28;20032;-57
2023/05/08 06:56:35;;;;;;;5.80;3.30;;;;;;;9.15;55.70;102441.72;5071059;28;20016;-57
2023/05/08 06:59:00;;;;;;;9.93;3.58;;;;;;;9.28;55.12;102437.13;5070553;28;20052;-56
2023/05/08 07:01:26;;;;;;;5.22;3.70;;;;;;;9.45;54.27;102450.13;5065708;28;20052;-58
2023/05/08 07:03:51;;;;;;;5.28;2.53;;;;;;;9.44;53.51;102447.50;5056388;28;20033;-57
2023/05/08 07:06:17;;;;;;;6.80;2.95;;;;;;;9.52;52.49;102441.19;5060250;28;20543;-58
2023/05/08 07:08:42;;;;;;;6.20;3.13;;;;;;;9.54;52.87;102438.53;5062199;28;20036;-58
2023/05/08 07:11:08;;;;;;;3.65;2.70;;;;;;;9.64;53.57;102444.56;5065409;28;20046;-58
2023/05/08 07:13:37;;;;;;;9.15;3.05;;;;;;;9.84;52.32;102445.16;5067681;28;20039;-58
2023/05/08 07:16:10;;;;;;;7.38;2.90;;;;;;;9.97;52.40;102432.63;5069005;28;20502;-58
2023/05/08 07:18:36;;;;;;;5.85;2.80;;;;;;;10.14;51.72;102444.69;5068288;28;20502;-57
2023/05/08 07:21:02;;;;;;;5.57;3.00;;;;;;;10.25;50.93;102437.44;5062629;28;20048;-58
2023/05/08 07:23:28;;;;;;;3.47;2.63;;;;;;;10.41;50.47;102438.06;5067489;28;20135;-58
2023/05/08 07:25:53;;;;;;;7.88;2.60;;;;;;;10.35;49.94;102439.03;5069413;28;20120;-58
2023/05/08 07:28:19;;;;;;;7.43;2.40;;;;;;;10.50;50.09;102437.03;5071599;28;20028;-57
2023/05/08 07:30:44;;;;;;;6.72;2.78;;;;;;;10.49;49.29;102419.41;5067624;28;20158;-58
2023/05/08 07:33:10;;;;;;;4.28;1.95;;;;;;;10.57;48.48;102428.06;5075238;28;20039;-58
2023/05/08 07:35:38;;;;;;;4.30;2.47;;;;;;;10.66;48.52;102438.47;5070910;28;20104;-58
2023/05/08 07:38:03;;;;;;;3.53;2.40;;;;;;;10.66;48.06;102427.91;5067460;28;20407;-58
2023/05/08 07:40:29;;;;;;;4.68;2.72;;;;;;;10.88;47.13;102438.91;5067786;28;20028;-58
2023/05/08 07:42:54;;;;;;;4.40;2.47;;;;;;;10.92;46.70;102435.31;5075109;28;20067;-57
2023/05/08 07:45:19;;;;;;;6.40;3.15;;;;;;;10.95;46.51;102434.38;5070814;28;20561;-57
2023/05/08 07:47:50;;;;;;;4.38;1.83;;;;;;;10.92;46.36;102430.03;5074006;28;20036;-59
2023/05/08 07:50:16;;;;;;;4.90;2.40;;;;;;;11.05;47.47;102422.72;5070770;28;20028;-57
2023/05/08 07:52:41;;;;;;;12.77;2.83;;;;;;;11.29;46.48;102417.78;5072893;28;20278;-59
2023/05/08 07:55:07;;;;;;;4.80;2.17;;;;;;;11.38;45.41;102428.19;5071957;28;20600;-57
2023/05/08 07:57:37;;;;;;;7.25;2.83;;;;;;;11.28;44.90;102418.69;5061553;28;20063;-58
2023/05/08 08:00:04;;;;;;;3.80;2.20;;;;;;;11.26;45.12;102423.13;5065924;28;20476;-57
2023/05/08 08:02:29;;;;;;;5.32;2.13;;;;;;;11.41;44.40;102430.75;5070219;28;20032;-56
2023/05/08 08:04:55;;;;;;;4.90;2.83;;;;;;;11.53;45.14;102432.25;5073105;28;20024;-58
2023/05/08 08:07:20;;;;;;;8.73;2.33;;;;;;;11.57;44.48;102424.22;5071360;28;20039;-56
2023/05/08 08:09:46;;;;;;;11.30;2.63;;;;;;;11.53;43.09;102422.53;5070555;28;20025;-56
2023/05/08 08:12:11;;;;;;;6.88;2.10;;;;;;;11.74;43.46;102430.88;5073172;28;20032;-55
2023/05/08 08:14:36;;;;;;;2.88;2.03;;;;;;;11.72;43.09;102438.88;5072572;28;20091;-56
2023/05/08 08:17:02;;;;;;;4.63;3.00;;;;;;;11.83;44.48;102430.66;5071657;28;20032;-56
2023/05/08 08:19:27;;;;;;;6.18;2.20;;;;;;;11.98;43.67;102433.88;5070372;28;20429;-57
2023/05/08 08:21:52;;;;;;;3.47;2.30;;;;;;;11.91;42.58;102418.13;5073686;28;20039;-58
2023/05/08 08:24:18;;;;;;;8.25;2.50;;;;;;;12.07;42.40;102417.75;5074439;28;20068;-57
2023/05/08 08:26:44;;;;;;;4.75;2.40;;;;;;;12.32;42.44;102417.09;5077405;28;20037;-56
2023/05/08 08:29:09;;;;;;;5.90;2.17;;;;;;;12.38;43.21;102416.94;5067781;28;20024;-56
2023/05/08 08:31:34;;;;;;;3.17;2.05;;;;;;;12.38;43.00;102419.59;5073087;28;20163;-58
2023/05/08 08:34:00;;;;;;;5.03;2.60;;;;;;;12.36;42.59;102405.50;5066566;28;20146;-58
2023/05/08 08:36:25;;;;;;;4.30;2.00;;;;;;;12.54;42.04;102412.97;5073347;28;20107;-58
2023/05/08 08:38:51;;;;;;;4.57;2.20;;;;;;;12.70;42.59;102418.72;5072318;28;20047;-58
2023/05/08 08:41:16;;;;;;;4.65;2.13;;;;;;;12.74;41.79;102417.72;5070493;28;20029;-58
2023/05/08 08:43:44;;;;;;;3.20;2.33;;;;;;;12.76;41.77;102422.97;5068729;28;20079;-59
2023/05/08 08:46:13;;;;;;;3.33;2.08;;;;;;;12.81;41.70;102413.97;5070849;28;20056;-58
2023/05/08 08:48:43;;;;;;;5.70;2.13;;;;;;;12.79;41.19;102412.28;5071684;28;20437;-59
2023/05/08 08:51:14;;;;;;;7.78;2.15;;;;;;;12.75;40.30;102410.63;5070745;28;20028;-58
2023/05/08 08:53:43;;;;;;;;;;;;;;;12.75;40.41;102395.59;5066784;28;20029;-57
2023/05/08 08:56:10;;;;;;;5.40;2.50;;;;;;;12.90;41.13;102399.56;5070649;28;19912;-57
2023/05/08 08:58:39;;;;;;;5.13;2.13;;;;;;;13.18;42.26;102404.91;5072632;28;20099;-57
2023/05/08 09:01:06;;;;;;;5.72;2.20;;;;;;;13.22;40.47;102400.38;5070464;28;20036;-57
2023/05/08 09:03:32;;;;;;;6.43;1.92;;;;;;;13.45;40.27;102406.81;5065054;28;20140;-58
2023/05/08 09:06:01;;;;;;;7.63;2.40;;;;;;;13.36;39.31;102408.84;5070655;28;20726;-58
2023/05/08 09:08:27;;;;;;;7.25;1.90;;;;;;;13.37;39.77;102399.97;5066965;28;20074;-58
2023/05/08 09:10:55;;;;;;;5.65;2.83;;;;;;;13.44;38.42;102399.75;5067779;28;20398;-58
2023/05/08 09:13:21;;;;;;;19.55;2.45;;;;;;;13.29;38.10;102406.38;5066662;28;20028;-60
2023/05/08 09:15:47;;;;;;;3.72;2.13;;;;;;;13.48;37.18;102420.84;5068114;28;20578;-58
2023/05/08 09:18:13;;;;;;;6.10;1.98;;;;;;;13.48;37.48;102407.56;5068052;28;20353;-58
2023/05/08 09:20:40;;;;;;;4.50;2.60;;;;;;;13.66;38.27;102410.56;5069100;28;20024;-56
2023/05/08 09:23:06;;;;;;;10.50;2.20;;;;;;;13.40;36.00;102417.56;5071005;28;20044;-58
2023/05/08 09:25:45;;;;;;;4.90;2.03;;;;;;;13.63;36.22;102400.91;5070083;28;20032;-59
2023/05/08 09:28:24;;;;;;;5.85;1.85;;;;;;;13.76;37.58;102412.91;5068743;28;20103;-57
2023/05/08 09:30:58;;;;;;;10.25;2.67;;;;;;;13.72;36.32;102421.88;5070416;28;20108;-58
2023/05/08 09:33:27;;;;;;;6.28;2.38;;;;;;;13.60;35.25;102409.00;5070930;28;20056;-58
2023/05/08 09:35:56;;;;;;;3.03;1.85;;;;;;;13.93;36.23;102406.16;5069614;28;20032;-59
2023/05/08 09:38:42;;;;;;;4.25;1.90;;;;;;;14.19;35.84;102412.34;5069324;28;20020;-58
2023/05/08 09:41:11;;;;;;;3.45;1.92;;;;;;;14.13;35.90;102416.97;5068399;28;20028;-60
2023/05/08 09:43:39;;;;;;;4.70;1.83;;;;;;;13.93;36.13;102404.34;5067851;28;20075;-58
2023/05/08 09:46:22;;;;;;;9.68;2.35;;;;;;;14.22;35.47;102410.47;5068322;28;20041;-59
2023/05/08 09:48:53;;;;;;;6.00;2.50;;;;;;;14.40;33.92;102414.28;5071368;28;20026;-56
2023/05/08 09:51:19;;;;;;;4.65;1.60;;;;;;;14.64;35.29;102401.03;5068825;28;20028;-60
2023/05/08 09:53:44;;;;;;;4.03;1.90;;;;;;;14.74;35.03;102410.41;5072660;28;20086;-58
2023/05/08 09:56:10;;;;;;;5.53;2.40;;;;;;;14.83;34.13;102412.75;5063626;28;20090;-56
2023/05/08 09:58:40;;;;;;;4.30;1.92;;;;;;;14.85;33.89;102397.56;5062550;28;20031;-57
2023/05/08 10:01:07;;;;;;;2.85;1.65;;;;;;;14.65;33.60;102400.13;5069248;28;20028;-58
2023/05/08 10:03:49;;;;;;;5.40;2.00;;;;;;;15.03;34.31;102403.13;5069111;28;20036;-58
2023/05/08 10:06:15;;;;;;;4.07;1.70;;;;;;;15.05;35.31;102395.94;5069245;28;20028;-59
2023/05/08 10:08:40;;;;;;;8.50;3.72;;;;;;;15.31;36.32;102402.94;5065357;28;20032;-59
2023/05/08 10:11:16;;;;;;;8.20;1.88;;;;;;;15.51;33.28;102406.59;5070442;28;20025;-60
2023/05/08 10:13:42;;;;;;;6.57;1.70;;;;;;;15.31;33.58;102412.72;5066089;28;20124;-58
2023/05/08 10:16:17;;;;;;;3.78;2.00;;;;;;;15.45;33.07;102410.38;5071889;28;20508;-58
2023/05/08 10:18:48;;;;;;;7.72;2.28;;;;;;;15.48;31.83;102407.59;5066617;28;20028;-57
2023/05/08 10:21:15;;;;;;;6.38;2.33;;;;;;;15.26;32.02;102410.25;5071045;28;20024;-58
2023/05/08 10:23:42;;;;;;;3.50;1.70;;;;;;;15.49;32.27;102404.00;5066487;28;20461;-60
2023/05/08 10:26:22;;;;;;;4.93;2.00;;;;;;;15.43;32.41;102401.56;5069765;28;20373;-59
2023/05/08 10:28:56;;;;;;;4.10;1.92;;;;;;;15.47;32.82;102399.66;5073942;28;20036;-59
2023/05/08 10:31:26;;;;;;;4.43;2.05;;;;;;;15.49;34.09;102384.47;5069324;28;20369;-58
2023/05/08 10:33:55;;;;;;;5.95;2.10;;;;;;;15.64;33.04;102391.84;5069010;28;20032;-58
2023/05/08 10:36:22;;;;;;;4.07;2.85;;;;;;;15.76;33.19;102394.03;5070630;28;20081;-58
2023/05/08 10:38:49;;;;;;;3.30;1.80;;;;;;;15.80;33.12;102384.13;5067448;28;20097;-57
2023/05/08 10:41:14;;;;;;;8.45;2.88;;;;;;;15.77;32.43;102379.78;5068319;28;20080;-55
2023/05/08 10:43:43;;;;;;;5.85;2.10;;;;;;;16.07;31.93;102382.09;5064328;28;20052;-56
2023/05/08 10:46:47;;;;;;;3.28;1.63;;;;;;;16.25;31.09;102376.88;5064369;28;20472;-56
2023/05/08 10:49:24;;;;;;;5.53;1.95;;;;;;;17.10;31.19;102378.41;5067474;28;20044;-56
2023/05/08 10:52:06;;;;;;;9.07;2.42;;;;;;;17.89;29.74;102362.09;5065961;28;20028;-56
2023/05/08 10:54:44;;;;;;;2.78;1.50;;;;;;;18.40;27.96;102362.97;5067884;28;20016;-56
2023/05/08 10:57:11;;;;;;;4.00;1.60;;;;;;;19.19;27.69;102362.28;5068870;28;20020;-56
2023/05/08 10:59:36;;;;;;;3.25;2.00;;;;;;;19.41;26.20;102371.75;5059668;28;20035;-57
2023/05/08 11:02:08;;;;;;;12.02;2.50;;;;;;;20.02;26.02;102361.09;5064641;28;20040;-56
2023/05/08 11:04:33;;;;;;;;;;;;;;;20.12;25.83;102356.88;5062735;28;20035;-56
2023/05/08 11:06:59;;;;;;;5.63;1.58;;;;;;;20.10;25.81;102358.81;5069777;28;20268;-56
2023/05/08 11:09:43;;;;;;;6.03;1.88;;;;;;;21.19;24.32;102359.19;5070220;28;20020;-56
2023/05/08 11:12:24;;;;;;;5.40;2.25;;;;;;;20.76;23.90;102353.88;5070098;28;20070;-55
2023/05/08 11:15:03;;;;;;;2.33;1.40;;;;;;;21.44;23.73;102353.88;5070333;28;20124;-56
2023/05/08 11:17:28;;;;;;;3.22;2.03;;;;;;;21.04;24.26;102348.47;5071243;28;20028;-55
2023/05/08 11:19:56;;;;;;;2.53;1.58;;;;;;;22.67;23.15;102360.78;5069436;28;20031;-56
2023/05/08 11:22:23;;;;;;;6.05;1.85;;;;;;;22.21;23.56;102352.34;5068218;28;20412;-56
2023/05/08 11:24:51;;;;;;;5.53;1.90;;;;;;;23.19;22.71;102344.47;5070672;28;20044;-56
2023/05/08 11:27:16;;;;;;;4.10;1.88;;;;;;;22.80;22.65;102344.56;5070121;28;20073;-55
2023/05/08 11:29:43;;;;;;;3.55;1.70;;;;;;;23.34;22.13;102346.03;5071085;28;20033;-56
2023/05/08 11:32:09;;;;;;;4.20;1.65;;;;;;;23.86;21.46;102335.81;5069249;28;20033;-56